National Weather Service Raw Text Product

Displaying AFOS PIL: TAFDSM Received: 2018-06-14 00:56 UTC


776 
FTUS43 KDMX 140056 AAA
TAFDSM
TAF AMD
KDSM 140056Z 1401/1424 15005KT P6SM BKN200
     FM140145 15005KT P6SM VCTS BKN090CB
     FM140300 14005KT P6SM BKN120
     FM141100 12009KT P6SM BKN070
     FM141700 14012KT P6SM BKN080=